createdAt,value
2018-11-14T00:01:39.400Z,100795.73
2018-11-14T00:04:06.835Z,100793.10
2018-11-14T00:06:34.276Z,100798.73
2018-11-14T00:09:01.713Z,100796.83
2018-11-14T00:11:29.172Z,100791.78
2018-11-14T00:13:56.605Z,100792.81
2018-11-14T00:16:24.041Z,100797.66
2018-11-14T00:18:51.479Z,100791.12
2018-11-14T00:21:18.917Z,100798.53
2018-11-14T00:23:46.356Z,100790.39
2018-11-14T00:26:13.785Z,100786.53
2018-11-14T00:28:41.230Z,100779.37
2018-11-14T00:31:08.664Z,100789.34
2018-11-14T00:33:36.120Z,100787.55
2018-11-14T00:36:03.592Z,100777.66
2018-11-14T00:38:31.040Z,100780.62
2018-11-14T00:40:58.521Z,100780.14
2018-11-14T00:43:25.944Z,100772.75
2018-11-14T00:45:53.380Z,100770.13
2018-11-14T00:48:20.846Z,100774.14
2018-11-14T00:50:50.100Z,100770.42
2018-11-14T00:53:17.684Z,100769.11
2018-11-14T00:55:45.132Z,100766.47
2018-11-14T00:58:12.568Z,100768.20
2018-11-14T01:00:40.010Z,100769.70
2018-11-14T01:03:07.460Z,100771.16
2018-11-14T01:05:34.891Z,100774.47
2018-11-14T01:08:02.322Z,100779.62
2018-11-14T01:10:29.751Z,100786.09
2018-11-14T01:12:57.235Z,100785.84
2018-11-14T01:15:25.532Z,100791.28
2018-11-14T01:17:53.057Z,100789.11
2018-11-14T01:20:20.529Z,100790.34
2018-11-14T01:22:47.953Z,100792.60
2018-11-14T01:25:15.376Z,100790.34
2018-11-14T01:27:42.808Z,100793.70
2018-11-14T01:30:10.236Z,100783.34
2018-11-14T01:32:37.708Z,100787.58
2018-11-14T01:35:05.142Z,100785.98
2018-11-14T01:37:32.571Z,100787.38
2018-11-14T01:40:00.006Z,100792.30
2018-11-14T01:42:27.463Z,100791.21
2018-11-14T01:44:54.901Z,100792.89
2018-11-14T01:47:22.365Z,100785.41
2018-11-14T01:49:49.828Z,100785.27
2018-11-14T01:52:17.270Z,100788.22
2018-11-14T01:54:44.701Z,100782.02
2018-11-14T01:57:12.144Z,100786.56
2018-11-14T01:59:39.579Z,100780.78
2018-11-14T02:02:07.017Z,100782.47
2018-11-14T02:04:34.469Z,100788.22
2018-11-14T02:07:01.911Z,100796.95
2018-11-14T02:09:29.342Z,100797.23
2018-11-14T02:11:56.784Z,100789.17
2018-11-14T02:14:24.208Z,100795.73
2018-11-14T02:16:51.647Z,100798.91
2018-11-14T02:19:19.075Z,100801.91
2018-11-14T02:21:46.501Z,100798.07
2018-11-14T02:24:13.953Z,100803.48
2018-11-14T02:26:41.385Z,100803.57
2018-11-14T02:29:08.830Z,100800.65
2018-11-14T02:31:36.256Z,100813.00
2018-11-14T02:34:03.697Z,100801.05
2018-11-14T02:36:31.124Z,100799.16
2018-11-14T02:38:58.557Z,100793.25
2018-11-14T02:41:26.000Z,100788.69
2018-11-14T02:43:53.439Z,100789.59
2018-11-14T02:46:20.896Z,100783.33
2018-11-14T02:48:48.328Z,100782.23
2018-11-14T02:51:15.788Z,100780.63
2018-11-14T02:53:43.221Z,100771.84
2018-11-14T02:56:10.658Z,100768.94
2018-11-14T02:58:38.101Z,100759.88
2018-11-14T03:01:05.532Z,100767.69
2018-11-14T03:03:32.997Z,100766.57
2018-11-14T03:06:00.466Z,100764.94
2018-11-14T03:08:27.900Z,100766.98
2018-11-14T03:10:55.349Z,100768.61
2018-11-14T03:13:22.784Z,100765.65
2018-11-14T03:15:50.226Z,100758.31
2018-11-14T03:18:17.699Z,100764.91
2018-11-14T03:20:45.166Z,100760.27
2018-11-14T03:23:12.612Z,100765.05
2018-11-14T03:25:40.080Z,100756.09
2018-11-14T03:28:07.513Z,100755.32
2018-11-14T03:30:34.944Z,100750.98
2018-11-14T03:33:02.372Z,100751.70
2018-11-14T03:35:29.805Z,100756.13
2018-11-14T03:37:57.245Z,100751.16
2018-11-14T03:40:24.672Z,100751.87
2018-11-14T03:42:52.114Z,100754.58
2018-11-14T03:45:19.560Z,100748.58
2018-11-14T03:47:47.005Z,100748.14
2018-11-14T03:50:14.438Z,100744.61
2018-11-14T03:52:41.886Z,100748.39
2018-11-14T03:55:09.329Z,100744.98
2018-11-14T03:57:36.754Z,100752.74
2018-11-14T04:00:04.234Z,100748.14
2018-11-14T04:02:31.668Z,100749.48
2018-11-14T04:04:59.116Z,100747.67
2018-11-14T04:07:26.551Z,100745.17
2018-11-14T04:09:53.984Z,100744.09
2018-11-14T04:12:21.424Z,100749.45
2018-11-14T04:14:48.857Z,100738.69
2018-11-14T04:17:18.310Z,100736.22
2018-11-14T04:22:57.376Z,100725.00
2018-11-14T04:25:27.298Z,100725.48
2018-11-14T04:27:55.218Z,100720.79
2018-11-14T04:30:22.865Z,100717.91
2018-11-14T04:32:50.463Z,100708.67
2018-11-14T04:35:17.893Z,100716.37
2018-11-14T04:37:45.391Z,100705.94
2018-11-14T04:40:12.840Z,100705.23
2018-11-14T04:42:40.335Z,100707.13
2018-11-14T04:45:07.769Z,100709.38
2018-11-14T04:47:35.209Z,100707.86
2018-11-14T04:50:02.636Z,100707.56
2018-11-14T04:52:30.082Z,100712.52
2018-11-14T04:54:57.541Z,100712.41
2018-11-14T04:57:24.983Z,100697.83
2018-11-14T04:59:52.518Z,100706.75
2018-11-14T05:02:20.008Z,100706.72
2018-11-14T05:04:47.388Z,100707.45
2018-11-14T05:07:14.827Z,100709.48
2018-11-14T05:09:42.268Z,100712.42
2018-11-14T05:12:09.689Z,100706.48
2018-11-14T05:14:37.125Z,100707.36
2018-11-14T05:17:04.559Z,100711.73
2018-11-14T05:19:31.988Z,100708.34
2018-11-14T05:21:59.421Z,100706.80
2018-11-14T05:24:26.849Z,100705.44
2018-11-14T05:26:54.300Z,100709.05
2018-11-14T05:29:21.728Z,100708.32
2018-11-14T05:31:49.205Z,100707.38
2018-11-14T05:34:16.640Z,100702.84
2018-11-14T05:36:44.097Z,100696.58
2018-11-14T05:39:11.532Z,100701.59
2018-11-14T05:41:38.994Z,100697.45
2018-11-14T05:44:06.416Z,100702.66
2018-11-14T05:46:33.851Z,100700.64
2018-11-14T05:49:01.280Z,100702.55
2018-11-14T05:51:28.728Z,100701.88
2018-11-14T05:53:56.168Z,100693.50
2018-11-14T05:56:23.611Z,100697.39
2018-11-14T05:58:51.076Z,100703.64
2018-11-14T06:01:18.508Z,100696.48
2018-11-14T06:03:45.940Z,100697.85
2018-11-14T06:06:13.371Z,100694.97
2018-11-14T06:08:40.804Z,100697.41
2018-11-14T06:11:08.245Z,100699.62
2018-11-14T06:13:35.680Z,100691.45
2018-11-14T06:16:03.160Z,100697.48
2018-11-14T06:18:30.588Z,100692.18
2018-11-14T06:20:58.033Z,100703.23
2018-11-14T06:23:25.517Z,100704.48
2018-11-14T06:25:52.909Z,100705.48
2018-11-14T06:28:20.335Z,100706.32
2018-11-14T06:30:47.765Z,100701.45
2018-11-14T06:33:15.273Z,100697.14
2018-11-14T06:35:43.534Z,100694.05
2018-11-14T06:38:10.968Z,100696.64
2018-11-14T06:40:38.402Z,100695.33
2018-11-14T06:43:05.837Z,100697.14
2018-11-14T06:45:33.260Z,100694.99
2018-11-14T06:48:00.704Z,100700.37
2018-11-14T06:50:28.140Z,100707.83
2018-11-14T06:52:55.572Z,100711.31
2018-11-14T06:55:23.005Z,100707.19
2018-11-14T06:57:51.557Z,100711.63
2018-11-14T07:00:18.983Z,100709.29
2018-11-14T07:02:46.404Z,100710.42
2018-11-14T07:05:13.994Z,100712.70
2018-11-14T07:07:41.288Z,100708.03
2018-11-14T07:10:09.119Z,100702.84
2018-11-14T07:12:36.560Z,100704.86
2018-11-14T07:15:04.000Z,100715.42
2018-11-14T07:17:31.426Z,100715.55
2018-11-14T07:19:58.878Z,100717.30
2018-11-14T07:22:26.324Z,100724.64
2018-11-14T07:24:53.818Z,100729.84
2018-11-14T07:27:21.244Z,100735.53
2018-11-14T07:29:48.667Z,100743.34
2018-11-14T07:32:16.183Z,100745.48
2018-11-14T07:34:43.564Z,100747.14
2018-11-14T07:37:10.997Z,100747.16
2018-11-14T07:39:38.448Z,100756.84
2018-11-14T07:42:06.832Z,100758.73
2018-11-14T07:44:34.252Z,100761.64
2018-11-14T07:47:01.696Z,100757.07
2018-11-14T07:49:29.137Z,100754.29
2018-11-14T07:51:56.560Z,100754.56
2018-11-14T07:54:24.013Z,100757.53
2018-11-14T07:56:52.152Z,100752.44
2018-11-14T07:59:19.584Z,100749.39
2018-11-14T08:01:47.017Z,100756.09
2018-11-14T08:04:14.440Z,100755.81
2018-11-14T08:06:41.889Z,100758.25
2018-11-14T08:09:09.324Z,100758.96
2018-11-14T08:11:36.809Z,100751.53
2018-11-14T08:14:04.310Z,100760.48
2018-11-14T08:16:31.843Z,100763.03
2018-11-14T08:18:59.291Z,100759.88
2018-11-14T08:21:26.705Z,100762.87
2018-11-14T08:23:54.131Z,100765.22
2018-11-14T08:26:21.564Z,100761.29
2018-11-14T08:28:49.859Z,100761.42
2018-11-14T08:31:17.361Z,100766.67
2018-11-14T08:33:44.790Z,100772.06
2018-11-14T08:36:12.243Z,100767.88
2018-11-14T08:38:39.672Z,100767.81
2018-11-14T08:41:07.137Z,100772.75
2018-11-14T08:43:34.572Z,100773.25
2018-11-14T08:46:02.001Z,100761.45
2018-11-14T08:48:29.436Z,100766.90
2018-11-14T08:50:58.104Z,100760.42
2018-11-14T08:53:25.540Z,100757.35
2018-11-14T08:55:52.983Z,100763.23
2018-11-14T08:58:20.419Z,100752.66
2018-11-14T09:00:47.852Z,100747.00
2018-11-14T09:03:15.304Z,100752.04
2018-11-14T09:05:42.732Z,100750.09
2018-11-14T09:08:10.173Z,100748.81
2018-11-14T09:10:37.608Z,100747.12
2018-11-14T09:13:05.122Z,100745.00
2018-11-14T09:15:32.472Z,100745.72
2018-11-14T09:17:59.915Z,100748.28
2018-11-14T09:20:27.365Z,100751.90
2018-11-14T09:22:54.837Z,100749.78
2018-11-14T09:25:22.270Z,100749.05
2018-11-14T09:27:49.693Z,100752.71
2018-11-14T09:30:17.128Z,100759.05
2018-11-14T09:32:44.560Z,100765.12
2018-11-14T09:35:11.983Z,100755.73
2018-11-14T09:37:40.471Z,100753.19
2018-11-14T09:40:07.979Z,100754.06
2018-11-14T09:42:35.412Z,100757.80
2018-11-14T09:45:02.880Z,100756.13
2018-11-14T09:47:30.327Z,100757.80
2018-11-14T09:49:57.755Z,100753.21
2018-11-14T09:52:25.180Z,100747.02
2018-11-14T09:54:52.736Z,100746.76
2018-11-14T09:57:20.162Z,100742.02
2018-11-14T09:59:47.590Z,100749.25
2018-11-14T10:02:15.031Z,100752.98
2018-11-14T10:04:42.564Z,100742.30
2018-11-14T10:07:10.004Z,100744.26
2018-11-14T10:09:37.445Z,100745.95
2018-11-14T10:12:04.927Z,100748.50
2018-11-14T10:14:32.352Z,100734.17
2018-11-14T10:16:59.775Z,100732.45
2018-11-14T10:19:27.212Z,100737.94
2018-11-14T10:21:54.682Z,100738.34
2018-11-14T10:24:22.104Z,100742.12
2018-11-14T10:26:49.529Z,100734.80
2018-11-14T10:29:16.989Z,100734.02
2018-11-14T10:31:44.495Z,100742.41
2018-11-14T10:34:11.864Z,100740.68
2018-11-14T10:36:39.292Z,100729.72
2018-11-14T10:39:06.728Z,100731.54
2018-11-14T10:41:34.156Z,100736.34
2018-11-14T10:44:01.617Z,100737.00
2018-11-14T10:46:29.040Z,100731.38
2018-11-14T10:48:56.488Z,100730.95
2018-11-14T10:51:23.940Z,100728.05
2018-11-14T10:53:51.372Z,100728.17
2018-11-14T10:56:18.809Z,100719.44
2018-11-14T10:58:46.268Z,100723.40
2018-11-14T11:01:13.708Z,100723.69
2018-11-14T11:03:41.136Z,100712.80
2018-11-14T11:06:08.576Z,100708.59
2018-11-14T11:08:36.058Z,100701.55
2018-11-14T11:11:03.453Z,100701.55
2018-11-14T11:13:30.883Z,100701.52
2018-11-14T11:15:59.588Z,100696.88
2018-11-14T11:18:27.017Z,100689.30
2018-11-14T11:20:54.460Z,100695.66
2018-11-14T11:23:21.899Z,100691.59
2018-11-14T11:25:49.324Z,100689.62
2018-11-14T11:28:16.872Z,100692.19
2018-11-14T11:30:44.442Z,100689.78
2018-11-14T11:33:11.749Z,100696.59
2018-11-14T11:35:39.189Z,100694.95
2018-11-14T11:38:06.629Z,100685.06
2018-11-14T11:40:34.056Z,100684.45
2018-11-14T11:43:01.488Z,100684.30
2018-11-14T11:45:28.921Z,100683.38
2018-11-14T11:47:56.344Z,100675.90
2018-11-14T11:50:23.842Z,100675.77
2018-11-14T11:52:51.685Z,100678.20
2018-11-14T11:55:19.139Z,100685.45
2018-11-14T11:57:46.568Z,100683.36
2018-11-14T12:00:14.097Z,100688.66
2018-11-14T12:02:41.453Z,100683.62
2018-11-14T12:05:08.953Z,100685.64
2018-11-14T12:07:36.398Z,100677.91
2018-11-14T12:10:03.845Z,100678.60
2018-11-14T12:12:31.277Z,100673.52
2018-11-14T12:14:58.705Z,100673.75
2018-11-14T12:17:26.148Z,100667.35
2018-11-14T12:19:53.572Z,100665.38
2018-11-14T12:22:21.019Z,100663.31
2018-11-14T12:24:48.455Z,100665.58
2018-11-14T12:27:16.015Z,100658.31
2018-11-14T12:29:43.361Z,100654.63
2018-11-14T12:32:10.804Z,100653.68
2018-11-14T12:34:38.280Z,100649.34
2018-11-14T12:37:05.706Z,100648.13
2018-11-14T12:39:33.139Z,100648.94
2018-11-14T12:42:00.563Z,100648.52
2018-11-14T12:44:28.002Z,100646.39
2018-11-14T12:46:55.503Z,100641.63
2018-11-14T12:49:22.952Z,100645.12
2018-11-14T12:54:42.807Z,100633.87
2018-11-14T12:57:10.256Z,100637.70
2018-11-14T13:28:25.613Z,100629.21
2018-11-14T13:30:54.366Z,100632.36
2018-11-14T13:33:22.788Z,100627.18
2018-11-14T13:35:51.569Z,100627.55
2018-11-14T13:38:21.325Z,100634.03
2018-11-14T13:40:49.749Z,100632.84
2018-11-14T13:43:18.538Z,100633.31
2018-11-14T13:45:47.569Z,100635.21
2018-11-14T13:48:15.080Z,100632.27
2018-11-14T13:50:42.725Z,100637.30
2018-11-14T13:53:10.002Z,100636.14
2018-11-14T13:55:37.712Z,100634.47
2018-11-14T13:58:05.488Z,100632.30
2018-11-14T14:00:33.902Z,100631.77
2018-11-14T14:03:01.867Z,100635.09
2018-11-14T14:05:29.975Z,100638.80
2018-11-14T14:07:58.389Z,100629.12
2018-11-14T14:10:26.110Z,100630.31
2018-11-14T14:12:53.818Z,100631.12
2018-11-14T14:15:21.611Z,100627.66
2018-11-14T14:17:49.288Z,100621.94
2018-11-14T14:20:17.050Z,100625.80
2018-11-14T14:22:48.970Z,100621.38
2018-11-14T14:25:19.813Z,100627.88
2018-11-14T14:27:47.474Z,100633.70
2018-11-14T14:30:15.221Z,100625.83
2018-11-14T14:32:43.560Z,100629.50
2018-11-14T14:35:11.264Z,100632.12
2018-11-14T14:37:38.893Z,100629.84
2018-11-14T14:40:06.601Z,100628.45
2018-11-14T14:42:34.582Z,100626.86
2018-11-14T14:45:02.349Z,100624.00
2018-11-14T14:47:29.998Z,100624.86
2018-11-14T14:49:57.460Z,100620.02
2018-11-14T14:52:25.017Z,100610.80
2018-11-14T14:54:52.858Z,100607.72
2018-11-14T14:57:20.584Z,100610.05
2018-11-14T14:59:48.272Z,100611.66
2018-11-14T15:02:15.964Z,100615.03
2018-11-14T15:04:43.855Z,100610.42
2018-11-14T15:07:12.361Z,100610.16
2018-11-14T15:09:42.106Z,100606.52
2018-11-14T15:12:09.843Z,100594.22
2018-11-14T15:14:37.776Z,100597.23
2018-11-14T15:17:05.477Z,100589.43
2018-11-14T15:19:33.245Z,100586.52
2018-11-14T15:22:00.982Z,100589.50
2018-11-14T15:24:28.660Z,100578.75
2018-11-14T15:26:56.254Z,100581.06
2018-11-14T15:29:23.809Z,100576.92
2018-11-14T15:31:51.561Z,100578.59
2018-11-14T15:34:19.013Z,100575.92
2018-11-14T15:36:46.541Z,100583.06
2018-11-14T15:39:14.256Z,100569.17
2018-11-14T15:41:42.083Z,100562.07
2018-11-14T15:44:09.537Z,100562.23
2018-11-14T15:46:37.015Z,100564.62
2018-11-14T15:49:04.821Z,100562.03
2018-11-14T15:51:32.526Z,100556.73
2018-11-14T15:54:00.356Z,100563.33
2018-11-14T15:56:28.079Z,100556.20
2018-11-14T15:58:56.294Z,100561.97
2018-11-14T16:01:23.985Z,100549.95
2018-11-14T16:03:51.621Z,100549.83
2018-11-14T16:06:19.280Z,100547.19
2018-11-14T16:08:46.905Z,100533.66
2018-11-14T16:11:14.655Z,100534.63
2018-11-14T16:13:42.340Z,100539.96
2018-11-14T16:16:10.042Z,100537.64
2018-11-14T16:18:38.319Z,100536.44
2018-11-14T16:21:06.064Z,100534.00
2018-11-14T16:23:33.928Z,100528.34
2018-11-14T16:26:03.963Z,100523.19
2018-11-14T16:28:33.061Z,100524.47
2018-11-14T16:31:00.978Z,100529.55
2018-11-14T16:33:28.738Z,100540.44
2018-11-14T16:35:56.774Z,100539.36
2018-11-14T16:38:24.757Z,100534.94
2018-11-14T16:40:52.670Z,100538.81
2018-11-14T16:43:20.537Z,100539.50
2018-11-14T16:45:51.709Z,100533.38
2018-11-14T16:48:20.359Z,100531.00
2018-11-14T16:50:48.134Z,100524.75
2018-11-14T16:53:15.809Z,100521.87
2018-11-14T16:55:43.664Z,100520.91
2018-11-14T16:58:11.187Z,100524.72
2018-11-14T17:00:38.787Z,100523.23
2018-11-14T17:03:06.764Z,100513.91
2018-11-14T17:05:34.580Z,100521.99
2018-11-14T17:08:02.027Z,100524.75
2018-11-14T17:10:31.711Z,100513.72
2018-11-14T17:12:59.899Z,100512.97
2018-11-14T17:15:27.835Z,100512.38
2018-11-14T17:17:56.192Z,100523.20
2018-11-14T17:20:23.937Z,100517.77
2018-11-14T17:22:51.615Z,100515.78
2018-11-14T17:25:19.062Z,100512.35
2018-11-14T17:27:46.800Z,100512.35
2018-11-14T17:30:14.346Z,100517.33
2018-11-14T17:32:41.889Z,100516.23
2018-11-14T17:35:09.629Z,100527.34
2018-11-14T17:37:38.113Z,100529.51
2018-11-14T17:40:06.699Z,100524.47
2018-11-14T17:42:34.592Z,100532.36
2018-11-14T17:45:02.245Z,100532.45
2018-11-14T17:47:30.045Z,100529.31
2018-11-14T17:49:58.397Z,100530.87
2018-11-14T17:52:25.871Z,100541.47
2018-11-14T17:54:53.300Z,100532.84
2018-11-14T17:57:20.748Z,100538.14
2018-11-14T17:59:49.673Z,100538.41
2018-11-14T18:02:17.563Z,100538.77
2018-11-14T18:04:45.112Z,100541.63
2018-11-14T18:07:12.811Z,100538.14
2018-11-14T18:09:40.499Z,100534.56
2018-11-14T18:12:08.334Z,100536.77
2018-11-14T18:14:36.417Z,100533.44
2018-11-14T18:17:04.541Z,100533.19
2018-11-14T18:19:32.149Z,100527.02
2018-11-14T18:22:00.863Z,100528.38
2018-11-14T18:24:28.480Z,100534.27
2018-11-14T18:26:55.928Z,100535.20
2018-11-14T18:29:23.863Z,100531.13
2018-11-14T18:31:51.567Z,100527.25
2018-11-14T18:34:19.801Z,100526.53
2018-11-14T18:36:47.798Z,100521.73
2018-11-14T18:39:15.465Z,100523.17
2018-11-14T18:41:43.252Z,100517.30
2018-11-14T18:44:19.297Z,100521.66
2018-11-14T18:49:27.059Z,100514.80
2018-11-14T18:52:01.920Z,100510.81
2018-11-14T18:54:29.847Z,100518.61
2018-11-14T18:56:57.669Z,100518.76
2018-11-14T18:59:27.059Z,100512.92
2018-11-14T19:01:55.859Z,100510.78
2018-11-14T19:04:27.380Z,100509.38
2018-11-14T19:06:55.048Z,100504.38
2018-11-14T19:09:22.804Z,100504.20
2018-11-14T19:11:50.384Z,100504.77
2018-11-14T19:14:17.869Z,100511.14
2018-11-14T19:16:45.331Z,100513.34
2018-11-14T19:19:12.851Z,100503.50
2018-11-14T19:21:40.280Z,100518.75
2018-11-14T19:24:07.756Z,100507.51
2018-11-14T19:26:35.890Z,100506.41
2018-11-14T19:29:03.337Z,100496.23
2018-11-14T19:31:30.787Z,100498.78
2018-11-14T19:33:58.248Z,100500.06
2018-11-14T19:36:25.676Z,100501.16
2018-11-14T19:38:55.886Z,100500.84
2018-11-14T19:41:23.488Z,100491.89
2018-11-14T19:43:50.997Z,100493.11
2018-11-14T19:46:18.444Z,100491.39
2018-11-14T19:48:46.769Z,100503.82
2018-11-14T19:51:14.475Z,100493.07
2018-11-14T19:53:41.962Z,100494.28
2018-11-14T19:56:10.249Z,100494.92
2018-11-14T19:58:37.848Z,100498.70
2018-11-14T20:01:06.405Z,100489.42
2018-11-14T20:03:34.490Z,100492.73
2018-11-14T20:06:03.407Z,100493.84
2018-11-14T20:08:30.897Z,100494.53
2018-11-14T20:10:58.342Z,100492.89
2018-11-14T20:13:25.784Z,100496.05
2018-11-14T20:15:53.320Z,100496.10
2018-11-14T20:18:20.789Z,100491.70
2018-11-14T20:20:48.533Z,100497.39
2018-11-14T20:23:16.084Z,100488.73
2018-11-14T20:28:17.592Z,100493.87
2018-11-14T20:30:45.078Z,100490.66
2018-11-14T20:33:12.799Z,100490.35
2018-11-14T20:35:40.606Z,100497.94
2018-11-14T20:38:08.500Z,100489.13
2018-11-14T20:40:36.282Z,100492.02
2018-11-14T20:43:03.930Z,100492.46
2018-11-14T20:45:31.341Z,100485.87
2018-11-14T20:47:59.248Z,100493.73
2018-11-14T20:50:27.053Z,100485.05
2018-11-14T20:52:55.012Z,100488.59
2018-11-14T20:55:22.692Z,100483.86
2018-11-14T20:57:50.472Z,100481.83
2018-11-14T21:00:18.157Z,100490.77
2018-11-14T21:02:45.632Z,100479.89
2018-11-14T21:05:13.162Z,100487.15
2018-11-14T21:07:40.653Z,100481.17
2018-11-14T21:10:08.735Z,100480.77
2018-11-14T21:12:36.343Z,100482.70
2018-11-14T21:15:04.394Z,100478.72
2018-11-14T21:17:32.654Z,100487.69
2018-11-14T21:20:01.193Z,100479.94
2018-11-14T21:22:28.782Z,100486.36
2018-11-14T21:24:56.225Z,100476.08
2018-11-14T21:27:23.661Z,100476.37
2018-11-14T21:29:51.169Z,100481.61
2018-11-14T21:32:18.574Z,100480.29
2018-11-14T21:34:45.997Z,100484.47
2018-11-14T21:37:13.455Z,100482.09
2018-11-14T21:39:40.889Z,100485.55
2018-11-14T21:42:08.334Z,100478.63
2018-11-14T21:44:35.763Z,100479.44
2018-11-14T21:47:03.196Z,100484.85
2018-11-14T21:49:30.616Z,100486.78
2018-11-14T21:51:58.044Z,100490.78
2018-11-14T21:54:25.468Z,100483.20
2018-11-14T21:56:52.900Z,100484.77
2018-11-14T21:59:20.329Z,100483.66
2018-11-14T22:01:47.764Z,100486.58
2018-11-14T22:04:15.193Z,100489.67
2018-11-14T22:06:42.651Z,100480.42
2018-11-14T22:09:10.077Z,100476.94
2018-11-14T22:11:37.510Z,100476.57
2018-11-14T22:14:04.965Z,100472.61
2018-11-14T22:16:32.389Z,100469.99
2018-11-14T22:18:59.864Z,100473.53
2018-11-14T22:21:27.584Z,100475.59
2018-11-14T22:23:55.037Z,100466.48
2018-11-14T22:26:22.463Z,100465.59
2018-11-14T22:28:49.888Z,100463.69
2018-11-14T22:31:17.880Z,100459.61
2018-11-14T22:33:45.347Z,100463.22
2018-11-14T22:36:12.768Z,100457.73
2018-11-14T22:38:40.244Z,100463.45
2018-11-14T22:41:07.671Z,100457.59
2018-11-14T22:43:35.109Z,100465.13
2018-11-14T22:46:02.536Z,100463.43
2018-11-14T22:48:29.977Z,100457.78
2018-11-14T22:50:57.406Z,100461.78
2018-11-14T22:53:24.838Z,100457.53
2018-11-14T22:55:53.540Z,100457.55
2018-11-14T22:58:21.063Z,100460.97
2018-11-14T23:00:48.501Z,100458.81
2018-11-14T23:03:15.921Z,100458.25
2018-11-14T23:05:43.347Z,100455.22
2018-11-14T23:08:10.776Z,100458.75
2018-11-14T23:10:38.219Z,100456.86
2018-11-14T23:13:05.647Z,100455.44
2018-11-14T23:15:33.134Z,100457.76
2018-11-14T23:18:00.523Z,100461.57
2018-11-14T23:20:27.968Z,100455.41
2018-11-14T23:22:55.413Z,100454.59
2018-11-14T23:25:22.882Z,100457.81
2018-11-14T23:27:50.296Z,100450.95
2018-11-14T23:30:17.733Z,100451.31
2018-11-14T23:32:45.214Z,100455.96
2018-11-14T23:35:12.644Z,100454.47
2018-11-14T23:37:40.076Z,100458.34
2018-11-14T23:40:07.508Z,100459.89
2018-11-14T23:42:34.956Z,100460.27
2018-11-14T23:45:02.630Z,100454.34
2018-11-14T23:47:30.140Z,100462.38
2018-11-14T23:49:57.601Z,100467.39
2018-11-14T23:52:25.037Z,100464.81
2018-11-14T23:54:52.498Z,100469.78
2018-11-14T23:57:19.928Z,100471.99
2018-11-14T23:59:47.360Z,100464.98
